createdAt,value
2023-02-11T00:01:31.560Z,100094.88
2023-02-11T00:03:03.368Z,100088.03
2023-02-11T00:04:34.946Z,100089.72
2023-02-11T00:06:11.124Z,100085.53
2023-02-11T00:07:42.754Z,100094.88
2023-02-11T00:09:14.343Z,100095.78
2023-02-11T00:10:46.530Z,100094.97
2023-02-11T00:12:19.677Z,100095.03
2023-02-11T00:13:52.291Z,100097.69
2023-02-11T00:15:23.983Z,100095.00
2023-02-11T00:16:55.534Z,100092.50
2023-02-11T00:18:27.838Z,100096.75
2023-02-11T00:19:59.468Z,100099.41
2023-02-11T00:21:31.045Z,100096.03
2023-02-11T00:23:02.769Z,100093.56
2023-02-11T00:24:35.667Z,100094.47
2023-02-11T00:26:15.645Z,100089.38
2023-02-11T00:27:47.623Z,100099.63
2023-02-11T00:29:19.180Z,100103.81
2023-02-11T00:31:01.693Z,100107.31
2023-02-11T00:32:34.255Z,100104.75
2023-02-11T00:34:05.969Z,100101.25
2023-02-11T00:35:38.670Z,100101.97
2023-02-11T00:37:13.646Z,100100.41
2023-02-11T00:38:47.731Z,100106.53
2023-02-11T00:40:19.631Z,100107.44
2023-02-11T00:41:51.324Z,100105.72
2023-02-11T00:43:23.291Z,100095.59
2023-02-11T00:44:55.568Z,100103.25
2023-02-11T00:46:27.401Z,100098.06
2023-02-11T00:47:59.065Z,100102.31
2023-02-11T00:49:33.001Z,100104.81
2023-02-11T00:51:05.366Z,100097.19
2023-02-11T00:52:37.014Z,100105.78
2023-02-11T00:54:08.667Z,100102.38
2023-02-11T00:55:40.504Z,100098.16
2023-02-11T00:57:12.177Z,100096.41
2023-02-11T00:58:43.912Z,100104.09
2023-02-11T01:00:15.975Z,100098.91
2023-02-11T01:01:49.274Z,100094.47
2023-02-11T01:03:21.008Z,100082.50
2023-02-11T01:04:53.005Z,100084.25
2023-02-11T01:06:24.894Z,100080.97
2023-02-11T01:07:56.602Z,100076.72
2023-02-11T01:09:28.502Z,100080.19
2023-02-11T01:11:03.074Z,100083.56
2023-02-11T01:12:36.519Z,100085.13
2023-02-11T01:14:09.184Z,100078.13
2023-02-11T01:15:40.949Z,100073.69
2023-02-11T01:17:12.903Z,100070.41
2023-02-11T01:18:44.789Z,100065.38
2023-02-11T01:20:22.493Z,100066.34
2023-02-11T01:21:54.151Z,100079.16
2023-02-11T01:23:26.991Z,100074.06
2023-02-11T01:24:58.591Z,100069.66
2023-02-11T01:26:30.377Z,100072.09
2023-02-11T01:28:03.303Z,100075.34
2023-02-11T01:29:35.811Z,100065.09
2023-02-11T01:31:07.535Z,100061.72
2023-02-11T01:32:39.917Z,100066.06
2023-02-11T01:34:13.851Z,100064.41
2023-02-11T01:35:46.753Z,100061.97
2023-02-11T01:37:18.550Z,100058.69
2023-02-11T01:38:50.645Z,100060.50
2023-02-11T01:40:25.163Z,100061.38
2023-02-11T01:41:56.824Z,100052.72
2023-02-11T01:43:32.851Z,100059.41
2023-02-11T01:45:39.556Z,100054.31
2023-02-11T01:47:11.688Z,100054.22
2023-02-11T01:48:47.825Z,100055.19
2023-02-11T01:50:19.574Z,100051.94
2023-02-11T01:51:58.156Z,100043.53
2023-02-11T01:53:50.730Z,100044.41
2023-02-11T01:55:41.028Z,100039.25
2023-02-11T01:57:22.116Z,100042.72
2023-02-11T01:58:59.601Z,100039.38
2023-02-11T02:00:39.083Z,100029.72
2023-02-11T02:02:13.746Z,100032.25
2023-02-11T02:03:48.549Z,100028.91
2023-02-11T02:05:20.309Z,100028.09
2023-02-11T02:06:57.974Z,100020.50
2023-02-11T02:08:44.825Z,100023.16
2023-02-11T02:10:21.007Z,100018.94
2023-02-11T02:11:52.741Z,100024.06
2023-02-11T02:13:24.894Z,100024.03
2023-02-11T02:15:19.759Z,100023.28
2023-02-11T02:16:51.384Z,100022.47
2023-02-11T02:18:41.169Z,100026.63
2023-02-11T02:20:27.370Z,100015.59
2023-02-11T02:22:36.319Z,100015.63
2023-02-11T02:24:31.610Z,100016.47
2023-02-11T02:26:26.655Z,100010.38
2023-02-11T02:28:29.060Z,100006.91
2023-02-11T02:30:06.854Z,100005.28
2023-02-11T02:31:56.825Z,100005.41
2023-02-11T02:33:56.460Z,99997.84
2023-02-11T02:35:34.121Z,100001.31
2023-02-11T02:37:16.423Z,100010.63
2023-02-11T02:39:09.118Z,100008.06
2023-02-11T02:40:53.213Z,100004.72
2023-02-11T02:42:25.861Z,100010.72
2023-02-11T02:43:57.824Z,100004.75
2023-02-11T02:45:29.467Z,100005.59
2023-02-11T02:47:01.143Z,100003.03
2023-02-11T02:48:35.808Z,99999.59
2023-02-11T02:50:09.723Z,100003.75
2023-02-11T02:51:47.746Z,99999.50
2023-02-11T02:53:53.261Z,100005.47
2023-02-11T02:56:12.811Z,100002.81
2023-02-11T02:57:56.208Z,99997.75
2023-02-11T02:59:33.947Z,99989.19
2023-02-11T03:01:30.221Z,99990.03
2023-02-11T03:03:23.409Z,99981.59
2023-02-11T03:05:10.343Z,99993.47
2023-02-11T03:07:06.888Z,99989.25
2023-02-11T03:08:46.833Z,99991.84
2023-02-11T03:10:36.220Z,99985.69
2023-02-11T03:12:10.427Z,99983.03
2023-02-11T03:13:44.358Z,99980.66
2023-02-11T03:15:18.966Z,99984.09
2023-02-11T03:16:53.145Z,99984.19
2023-02-11T03:18:28.957Z,99985.97
2023-02-11T03:20:02.857Z,99982.50
2023-02-11T03:21:37.903Z,99986.75
2023-02-11T03:23:21.982Z,99989.38
2023-02-11T03:24:55.959Z,99993.69
2023-02-11T03:26:27.544Z,99990.34
2023-02-11T03:27:59.160Z,99978.41
2023-02-11T03:29:33.628Z,99986.09
2023-02-11T03:31:11.403Z,99987.81
2023-02-11T03:32:51.414Z,99983.31
2023-02-11T03:34:44.861Z,99972.25
2023-02-11T03:36:23.977Z,99978.25
2023-02-11T03:38:00.573Z,99977.44
2023-02-11T03:39:39.599Z,99971.50
2023-02-11T03:41:14.055Z,99974.78
2023-02-11T03:42:50.969Z,99976.44
2023-02-11T03:44:26.461Z,99972.25
2023-02-11T03:45:59.593Z,99974.69
2023-02-11T03:47:35.321Z,99973.06
2023-02-11T03:49:12.034Z,99975.63
2023-02-11T03:50:46.646Z,99987.47
2023-02-11T03:52:19.269Z,99990.00
2023-02-11T03:53:54.700Z,99990.97
2023-02-11T03:55:28.586Z,99997.81
2023-02-11T03:57:02.249Z,100002.09
2023-02-11T03:58:33.985Z,100008.03
2023-02-11T04:00:07.058Z,100008.97
2023-02-11T04:01:43.383Z,100009.00
2023-02-11T04:03:15.132Z,100009.81
2023-02-11T04:04:47.514Z,100008.13
2023-02-11T04:06:19.187Z,99989.38
2023-02-11T04:07:50.890Z,99984.28
2023-02-11T04:09:22.475Z,99990.16
2023-02-11T04:10:54.119Z,99985.00
2023-02-11T04:12:26.145Z,99997.81
2023-02-11T04:13:57.801Z,99998.69
2023-02-11T04:15:29.558Z,99994.41
2023-02-11T04:17:01.287Z,99998.63
2023-02-11T04:18:32.894Z,100002.84
2023-02-11T04:20:05.134Z,99996.00
2023-02-11T04:21:36.719Z,99995.97
2023-02-11T04:23:08.365Z,99988.25
2023-02-11T04:24:39.926Z,99984.88
2023-02-11T04:26:11.655Z,99987.50
2023-02-11T04:27:43.256Z,99999.53
2023-02-11T04:29:14.864Z,99993.56
2023-02-11T04:30:46.524Z,99986.47
2023-02-11T04:32:18.115Z,99982.19
2023-02-11T04:33:49.682Z,99976.09
2023-02-11T04:35:21.574Z,99978.72
2023-02-11T04:36:53.224Z,99984.72
2023-02-11T04:38:24.835Z,99989.00
2023-02-11T04:39:56.568Z,99991.53
2023-02-11T04:41:28.188Z,99991.44
2023-02-11T04:42:59.830Z,100002.38
2023-02-11T04:44:31.551Z,99998.13
2023-02-11T04:46:03.177Z,99996.31
2023-02-11T04:47:35.111Z,99995.53
2023-02-11T04:49:06.739Z,99996.44
2023-02-11T04:50:38.349Z,99996.53
2023-02-11T04:52:10.363Z,100002.19
2023-02-11T04:53:45.175Z,99997.13
2023-02-11T04:55:16.891Z,99991.16
2023-02-11T04:56:49.704Z,99989.38
2023-02-11T04:58:21.427Z,99987.56
2023-02-11T04:59:53.000Z,99991.75
2023-02-11T05:01:24.646Z,100001.94
2023-02-11T05:02:56.218Z,99990.72
2023-02-11T05:04:27.945Z,99988.13
2023-02-11T05:05:59.599Z,99987.25
2023-02-11T05:07:31.169Z,99990.44
2023-02-11T05:09:02.770Z,99987.03
2023-02-11T05:10:34.832Z,99983.59
2023-02-11T05:12:06.648Z,99979.38
2023-02-11T05:13:38.314Z,99977.63
2023-02-11T05:15:10.080Z,99981.88
2023-02-11T05:16:41.670Z,99986.91
2023-02-11T05:18:14.932Z,99986.00
2023-02-11T05:19:46.588Z,99978.34
2023-02-11T05:21:19.519Z,99969.78
2023-02-11T05:22:51.082Z,99972.25
2023-02-11T05:24:22.632Z,99962.81
2023-02-11T05:25:54.188Z,99971.28
2023-02-11T05:27:25.825Z,99971.16
2023-02-11T05:28:57.381Z,99974.50
2023-02-11T05:30:29.416Z,99965.97
2023-02-11T05:32:01.050Z,99975.00
2023-02-11T05:33:33.240Z,99964.94
2023-02-11T05:35:05.257Z,99970.81
2023-02-11T05:36:36.910Z,99971.69
2023-02-11T05:38:08.557Z,99963.09
2023-02-11T05:39:40.199Z,99958.00
2023-02-11T05:41:12.411Z,99952.94
2023-02-11T05:42:44.045Z,99947.81
2023-02-11T05:44:15.636Z,99946.16
2023-02-11T05:45:47.277Z,99939.34
2023-02-11T05:47:18.859Z,99940.09
2023-02-11T05:48:51.279Z,99934.00
2023-02-11T05:50:22.884Z,99935.66
2023-02-11T05:51:57.379Z,99938.25
2023-02-11T05:53:29.037Z,99937.31
2023-02-11T05:55:00.574Z,99932.19
2023-02-11T05:56:32.176Z,99921.72
2023-02-11T05:58:04.337Z,99917.41
2023-02-11T05:59:35.958Z,99906.28
2023-02-11T06:01:07.492Z,99909.66
2023-02-11T06:02:39.323Z,99913.78
2023-02-11T06:04:11.089Z,99918.91
2023-02-11T06:05:43.819Z,99908.63
2023-02-11T06:07:15.456Z,99907.81
2023-02-11T06:08:47.109Z,99899.34
2023-02-11T06:10:19.690Z,99905.22
2023-02-11T06:11:51.341Z,99901.78
2023-02-11T06:13:22.911Z,99902.53
2023-02-11T06:14:54.458Z,99909.03
2023-02-11T06:16:26.086Z,99919.44
2023-02-11T06:17:57.694Z,99922.88
2023-02-11T06:19:29.295Z,99916.91
2023-02-11T06:21:01.216Z,99918.63
2023-02-11T06:22:34.055Z,99916.09
2023-02-11T06:24:06.997Z,99915.22
2023-02-11T06:25:38.699Z,99917.78
2023-02-11T06:27:10.230Z,99913.47
2023-02-11T06:28:42.131Z,99920.28
2023-02-11T06:30:14.386Z,99918.44
2023-02-11T06:31:46.082Z,99929.44
2023-02-11T06:33:17.732Z,99936.09
2023-02-11T06:34:49.322Z,99932.69
2023-02-11T06:36:22.386Z,99942.06
2023-02-11T06:37:54.585Z,99941.94
2023-02-11T06:39:26.166Z,99939.34
2023-02-11T06:40:57.696Z,99937.56
2023-02-11T06:42:29.222Z,99937.22
2023-02-11T06:44:00.946Z,99941.56
2023-02-11T06:45:32.516Z,99950.16
2023-02-11T06:47:04.398Z,99946.75
2023-02-11T06:48:36.182Z,99939.03
2023-02-11T06:50:12.617Z,99948.34
2023-02-11T06:51:44.149Z,99951.59
2023-02-11T06:53:15.750Z,99946.47
2023-02-11T06:54:47.319Z,99935.28
2023-02-11T06:56:22.042Z,99943.97
2023-02-11T06:57:53.682Z,99949.72
2023-02-11T06:59:25.304Z,99947.13
2023-02-11T07:00:56.855Z,99945.00
2023-02-11T07:02:28.497Z,99941.69
2023-02-11T07:04:00.166Z,99941.72
2023-02-11T07:05:31.790Z,99934.03
2023-02-11T07:07:03.458Z,99940.91
2023-02-11T07:08:37.538Z,99946.53
2023-02-11T07:10:09.328Z,99950.91
2023-02-11T07:11:40.891Z,99956.94
2023-02-11T07:13:12.485Z,99949.16
2023-02-11T07:14:44.139Z,99952.78
2023-02-11T07:16:17.595Z,99956.94
2023-02-11T07:17:49.220Z,99962.94
2023-02-11T07:19:21.087Z,99961.38
2023-02-11T07:20:52.672Z,99956.22
2023-02-11T07:22:24.282Z,99955.47
2023-02-11T07:23:55.927Z,99957.09
2023-02-11T07:25:27.552Z,99962.00
2023-02-11T07:26:59.136Z,99969.63
2023-02-11T07:28:31.385Z,99969.59
2023-02-11T07:30:06.961Z,99969.56
2023-02-11T07:31:39.074Z,99971.19
2023-02-11T07:33:10.752Z,99968.56
2023-02-11T07:34:42.408Z,99955.66
2023-02-11T07:36:15.926Z,99958.81
2023-02-11T07:37:47.518Z,99951.88
2023-02-11T07:39:20.257Z,99952.66
2023-02-11T07:40:51.788Z,99949.13
2023-02-11T07:42:23.409Z,99947.94
2023-02-11T07:43:55.732Z,99946.06
2023-02-11T07:45:27.343Z,99939.91
2023-02-11T07:46:59.805Z,99938.94
2023-02-11T07:48:31.650Z,99943.38
2023-02-11T07:50:03.428Z,99939.09
2023-02-11T07:51:35.011Z,99944.03
2023-02-11T07:53:06.558Z,99943.19
2023-02-11T07:54:38.254Z,99951.03
2023-02-11T07:56:11.083Z,99953.34
2023-02-11T07:57:42.695Z,99954.97
2023-02-11T07:59:14.335Z,99959.59
2023-02-11T08:00:46.060Z,99960.06
2023-02-11T08:02:17.712Z,99971.53
2023-02-11T08:03:49.629Z,99974.41
2023-02-11T08:05:21.198Z,99970.88
2023-02-11T08:06:56.499Z,99968.47
2023-02-11T08:08:29.509Z,99960.03
2023-02-11T08:10:01.100Z,99960.44
2023-02-11T08:11:32.903Z,99957.72
2023-02-11T08:13:04.563Z,99949.88
2023-02-11T08:14:36.357Z,99943.50
2023-02-11T08:16:08.879Z,99945.09
2023-02-11T08:17:40.508Z,99941.34
2023-02-11T08:19:15.185Z,99933.09
2023-02-11T08:20:46.831Z,99940.00
2023-02-11T08:22:18.455Z,99937.69
2023-02-11T08:23:50.515Z,99933.06
2023-02-11T08:25:22.226Z,99935.78
2023-02-11T08:26:53.888Z,99937.91
2023-02-11T08:28:25.655Z,99940.84
2023-02-11T08:29:59.507Z,99934.41
2023-02-11T08:31:35.669Z,99933.09
2023-02-11T08:33:07.281Z,99927.44
2023-02-11T08:34:38.947Z,99922.41
2023-02-11T08:36:19.819Z,99928.31
2023-02-11T08:37:52.587Z,99922.28
2023-02-11T08:39:24.346Z,99921.16
2023-02-11T08:40:56.021Z,99932.72
2023-02-11T08:42:27.684Z,99927.63
2023-02-11T08:43:59.447Z,99932.31
2023-02-11T08:45:31.055Z,99927.59
2023-02-11T08:47:02.762Z,99928.81
2023-02-11T08:48:34.574Z,99937.41
2023-02-11T08:50:06.866Z,99944.31
2023-02-11T08:51:38.510Z,99945.03
2023-02-11T08:53:10.087Z,99941.75
2023-02-11T08:54:41.733Z,99950.50
2023-02-11T08:56:14.928Z,99950.50
2023-02-11T08:57:46.554Z,99952.56
2023-02-11T08:59:18.189Z,99942.97
2023-02-11T09:00:50.583Z,99947.63
2023-02-11T09:02:22.440Z,99950.13
2023-02-11T09:03:54.354Z,99947.31
2023-02-11T09:05:27.560Z,99951.38
2023-02-11T09:06:59.158Z,99938.69
2023-02-11T09:08:30.816Z,99934.50
2023-02-11T09:10:02.530Z,99932.91
2023-02-11T09:11:35.636Z,99923.09
2023-02-11T09:13:08.342Z,99922.72
2023-02-11T09:14:41.337Z,99924.91
2023-02-11T09:16:22.355Z,99930.38
2023-02-11T09:17:54.115Z,99927.41
2023-02-11T09:19:25.789Z,99932.06
2023-02-11T09:21:05.520Z,99931.03
2023-02-11T09:22:37.159Z,99923.91
2023-02-11T09:24:08.786Z,99918.94
2023-02-11T09:25:41.242Z,99922.53
2023-02-11T09:27:12.837Z,99922.84
2023-02-11T09:28:45.020Z,99915.81
2023-02-11T09:30:16.989Z,99922.53
2023-02-11T09:31:48.974Z,99916.28
2023-02-11T09:33:20.757Z,99919.38
2023-02-11T09:34:52.474Z,99917.91
2023-02-11T09:36:26.273Z,99915.97
2023-02-11T09:37:57.846Z,99918.44
2023-02-11T09:39:29.914Z,99916.81
2023-02-11T09:41:04.062Z,99919.59
2023-02-11T09:42:46.599Z,99922.94
2023-02-11T09:44:24.995Z,99919.00
2023-02-11T09:45:57.533Z,99923.34
2023-02-11T09:47:33.075Z,99924.63
2023-02-11T09:49:06.241Z,99927.09
2023-02-11T09:51:02.634Z,99925.84
2023-02-11T09:53:02.027Z,99920.47
2023-02-11T09:54:39.134Z,99922.69
2023-02-11T09:56:14.193Z,99913.03
2023-02-11T09:57:45.822Z,99914.09
2023-02-11T09:59:18.661Z,99909.81
2023-02-11T10:01:24.043Z,99907.63
2023-02-11T10:03:19.677Z,99901.13
2023-02-11T10:05:16.033Z,99904.81
2023-02-11T10:06:50.420Z,99895.31
2023-02-11T10:08:27.912Z,99904.66
2023-02-11T10:10:14.424Z,99907.47
2023-02-11T10:12:01.309Z,99901.19
2023-02-11T10:13:42.128Z,99906.97
2023-02-11T10:15:26.082Z,99903.63
2023-02-11T10:17:31.747Z,99909.84
2023-02-11T10:19:11.301Z,99912.44
2023-02-11T10:20:57.948Z,99906.22
2023-02-11T10:22:47.171Z,99903.53
2023-02-11T10:24:19.941Z,99901.59
2023-02-11T10:25:54.621Z,99894.91
2023-02-11T10:27:35.464Z,99887.38
2023-02-11T10:29:28.998Z,99886.34
2023-02-11T10:31:09.660Z,99884.44
2023-02-11T10:33:14.909Z,99878.88
2023-02-11T10:34:47.120Z,99883.75
2023-02-11T10:36:23.835Z,99886.28
2023-02-11T10:37:56.196Z,99882.31
2023-02-11T10:39:28.495Z,99882.41
2023-02-11T10:41:00.251Z,99884.66
2023-02-11T10:42:31.870Z,99872.22
2023-02-11T10:44:06.999Z,99878.00
2023-02-11T10:45:43.166Z,99873.31
2023-02-11T10:47:22.025Z,99869.28
2023-02-11T10:48:54.305Z,99866.88
2023-02-11T10:50:32.536Z,99864.06
2023-02-11T10:52:27.926Z,99863.03
2023-02-11T10:54:06.242Z,99863.34
2023-02-11T10:55:37.889Z,99866.84
2023-02-11T10:57:20.005Z,99863.41
2023-02-11T10:58:56.841Z,99853.09
2023-02-11T11:00:40.593Z,99860.84
2023-02-11T11:02:32.095Z,99841.84
2023-02-11T11:04:03.918Z,99833.22
2023-02-11T11:05:45.638Z,99823.56
2023-02-11T11:07:23.017Z,99834.59
2023-02-11T11:08:54.799Z,99836.78
2023-02-11T11:10:45.972Z,99837.53
2023-02-11T11:12:36.602Z,99838.59
2023-02-11T11:14:20.409Z,99829.69
2023-02-11T11:16:13.998Z,99821.38
2023-02-11T11:17:46.176Z,99830.16
2023-02-11T11:19:23.592Z,99821.63
2023-02-11T11:21:13.027Z,99818.63
2023-02-11T11:22:50.688Z,99819.09
2023-02-11T11:24:39.070Z,99815.34
2023-02-11T11:26:12.428Z,99821.69
2023-02-11T11:27:49.850Z,99819.25
2023-02-11T11:29:33.345Z,99814.16
2023-02-11T11:31:13.034Z,99821.69
2023-02-11T11:32:45.014Z,99823.75
2023-02-11T11:34:31.768Z,99826.66
2023-02-11T11:36:08.505Z,99821.88
2023-02-11T11:37:40.120Z,99822.00
2023-02-11T11:39:29.811Z,99816.41
2023-02-11T11:41:17.467Z,99812.44
2023-02-11T11:43:02.644Z,99808.72
2023-02-11T11:44:37.080Z,99809.34
2023-02-11T11:46:09.867Z,99807.94
2023-02-11T11:47:45.269Z,99808.09
2023-02-11T11:49:30.081Z,99805.41
2023-02-11T11:51:05.290Z,99803.66
2023-02-11T11:52:48.934Z,99797.59
2023-02-11T11:54:20.750Z,99800.13
2023-02-11T11:56:11.466Z,99802.22
2023-02-11T11:57:43.361Z,99810.09
2023-02-11T11:59:16.676Z,99801.13
2023-02-11T12:00:48.478Z,99798.97
2023-02-11T12:02:31.940Z,99798.06
2023-02-11T12:04:23.174Z,99801.09
2023-02-11T12:06:07.195Z,99793.72
2023-02-11T12:08:03.293Z,99793.16
2023-02-11T12:09:37.817Z,99798.31
2023-02-11T12:11:37.536Z,99787.63
2023-02-11T12:13:33.916Z,99785.06
2023-02-11T12:15:15.345Z,99778.72
2023-02-11T12:17:19.266Z,99781.31
2023-02-11T12:19:02.791Z,99782.84
2023-02-11T12:20:52.489Z,99780.78
2023-02-11T12:22:46.802Z,99772.81
2023-02-11T12:24:41.669Z,99778.13
2023-02-11T12:26:42.603Z,99782.97
2023-02-11T12:28:28.002Z,99787.13
2023-02-11T12:30:02.625Z,99779.34
2023-02-11T12:31:40.235Z,99781.19
2023-02-11T12:33:33.235Z,99781.84
2023-02-11T12:35:32.582Z,99776.25
2023-02-11T12:37:22.984Z,99775.63
2023-02-11T12:39:13.325Z,99770.00
2023-02-11T12:40:53.902Z,99774.31
2023-02-11T12:42:43.915Z,99778.53
2023-02-11T12:44:38.778Z,99770.94
2023-02-11T12:46:10.838Z,99767.06
2023-02-11T12:48:13.458Z,99767.41
2023-02-11T12:50:09.113Z,99768.50
2023-02-11T12:51:58.937Z,99764.00
2023-02-11T12:53:53.861Z,99768.03
2023-02-11T12:55:26.774Z,99769.66
2023-02-11T12:57:02.599Z,99766.84
2023-02-11T12:58:44.892Z,99769.56
2023-02-11T13:00:22.224Z,99765.22
2023-02-11T13:01:56.006Z,99760.00
2023-02-11T13:03:39.211Z,99754.28
2023-02-11T13:05:26.264Z,99752.78
2023-02-11T13:07:05.413Z,99751.56
2023-02-11T13:08:49.521Z,99757.22
2023-02-11T13:10:36.163Z,99758.38
2023-02-11T13:12:31.478Z,99753.16
2023-02-11T13:14:18.596Z,99740.06
2023-02-11T13:15:54.185Z,99750.53
2023-02-11T13:17:34.123Z,99743.53
2023-02-11T13:19:32.024Z,99745.78
2023-02-11T13:21:15.937Z,99744.94
2023-02-11T13:23:04.432Z,99738.41
2023-02-11T13:24:38.722Z,99739.00
2023-02-11T13:26:19.613Z,99727.06
2023-02-11T13:28:18.220Z,99724.38
2023-02-11T13:29:56.337Z,99735.06
2023-02-11T13:31:30.054Z,99729.22
2023-02-11T13:33:04.880Z,99742.16
2023-02-11T13:34:42.763Z,99745.31
2023-02-11T13:36:40.897Z,99731.78
2023-02-11T13:38:21.454Z,99733.31
2023-02-11T13:40:22.186Z,99736.84
2023-02-11T13:42:03.109Z,99728.13
2023-02-11T13:43:36.386Z,99729.22
2023-02-11T13:45:27.515Z,99726.22
2023-02-11T13:47:05.284Z,99730.94
2023-02-11T13:48:39.379Z,99731.22
2023-02-11T13:50:23.855Z,99731.13
2023-02-11T13:51:56.918Z,99726.44
2023-02-11T13:53:29.777Z,99728.44
2023-02-11T13:55:13.627Z,99726.28
2023-02-11T13:56:46.320Z,99731.00
2023-02-11T13:58:29.060Z,99728.97
2023-02-11T14:00:07.266Z,99740.88
2023-02-11T14:02:11.341Z,99736.59
2023-02-11T14:04:37.378Z,99738.09
2023-02-11T14:06:29.369Z,99746.16
2023-02-11T14:08:28.660Z,99739.25
2023-02-11T14:10:00.438Z,99731.13
2023-02-11T14:11:41.026Z,99734.97
2023-02-11T14:13:33.468Z,99729.25
2023-02-11T14:15:11.124Z,99731.72
2023-02-11T14:17:06.696Z,99724.63
2023-02-11T14:18:44.272Z,99722.38
2023-02-11T14:20:43.315Z,99723.38
2023-02-11T14:22:16.575Z,99720.22
2023-02-11T14:23:48.666Z,99721.03
2023-02-11T14:25:25.473Z,99708.75
2023-02-11T14:27:00.805Z,99713.28
2023-02-11T14:28:34.490Z,99715.59
2023-02-11T14:30:20.923Z,99712.50
2023-02-11T14:32:05.404Z,99712.47
2023-02-11T14:33:40.376Z,99704.81
2023-02-11T14:35:21.068Z,99711.75
2023-02-11T14:37:03.414Z,99716.19
2023-02-11T14:38:56.087Z,99723.59
2023-02-11T14:40:33.463Z,99721.03
2023-02-11T14:42:05.959Z,99725.72
2023-02-11T14:43:45.380Z,99720.81
2023-02-11T14:45:21.305Z,99716.94
2023-02-11T14:46:54.932Z,99714.16
2023-02-11T14:48:52.233Z,99717.06
2023-02-11T14:50:33.741Z,99711.50
2023-02-11T14:52:34.440Z,99714.75
2023-02-11T14:54:15.233Z,99722.69
2023-02-11T14:55:54.635Z,99718.53
2023-02-11T14:57:27.753Z,99720.81
2023-02-11T14:58:59.472Z,99717.16
2023-02-11T15:00:31.153Z,99717.47
2023-02-11T15:02:03.679Z,99719.13
2023-02-11T15:03:39.966Z,99722.38
2023-02-11T15:05:22.521Z,99724.34
2023-02-11T15:06:55.787Z,99724.78
2023-02-11T15:08:28.639Z,99730.78
2023-02-11T15:10:00.429Z,99724.13
2023-02-11T15:11:39.123Z,99725.28
2023-02-11T15:13:21.644Z,99726.88
2023-02-11T15:14:56.246Z,99733.63
2023-02-11T15:16:28.962Z,99731.19
2023-02-11T15:18:02.789Z,99736.84
2023-02-11T15:19:41.033Z,99738.22
2023-02-11T15:21:13.334Z,99741.13
2023-02-11T15:22:47.393Z,99742.53
2023-02-11T15:24:35.031Z,99742.84
2023-02-11T15:26:21.917Z,99747.63
2023-02-11T15:27:58.746Z,99749.94
2023-02-11T15:29:43.019Z,99750.22
2023-02-11T15:31:18.255Z,99750.75
2023-02-11T15:32:51.815Z,99748.38
2023-02-11T15:34:23.536Z,99755.97
2023-02-11T15:35:55.485Z,99759.94
2023-02-11T15:37:31.766Z,99759.84
2023-02-11T15:39:29.044Z,99763.06
2023-02-11T15:41:03.608Z,99766.78
2023-02-11T15:42:50.682Z,99767.09
2023-02-11T15:44:28.478Z,99768.69
2023-02-11T15:46:01.821Z,99762.59
2023-02-11T15:47:33.509Z,99765.09
2023-02-11T15:49:06.570Z,99769.88
2023-02-11T15:50:41.012Z,99770.19
2023-02-11T15:52:21.550Z,99769.34
2023-02-11T15:53:57.033Z,99766.84
2023-02-11T15:55:29.902Z,99765.66
2023-02-11T15:57:08.422Z,99773.38
2023-02-11T15:58:42.331Z,99769.69
2023-02-11T16:00:17.677Z,99770.78
2023-02-11T16:01:49.858Z,99765.38
2023-02-11T16:03:23.381Z,99772.59
2023-02-11T16:04:58.023Z,99777.56
2023-02-11T16:06:35.513Z,99781.88
2023-02-11T16:08:34.618Z,99788.22
2023-02-11T16:10:22.697Z,99784.25
2023-02-11T16:11:58.783Z,99773.78
2023-02-11T16:13:33.687Z,99778.91
2023-02-11T16:15:42.366Z,99774.97
2023-02-11T16:17:25.415Z,99773.59
2023-02-11T16:19:05.763Z,99782.38
2023-02-11T16:20:37.837Z,99776.09
2023-02-11T16:22:15.916Z,99782.78
2023-02-11T16:23:53.659Z,99785.28
2023-02-11T16:25:25.324Z,99789.28
2023-02-11T16:27:00.129Z,99797.91
2023-02-11T16:28:33.033Z,99797.53
2023-02-11T16:30:05.619Z,99798.00
2023-02-11T16:31:41.035Z,99800.31
2023-02-11T16:33:12.762Z,99795.38
2023-02-11T16:34:44.887Z,99813.41
2023-02-11T16:36:19.366Z,99813.69
2023-02-11T16:37:50.971Z,99814.22
2023-02-11T16:39:22.962Z,99810.13
2023-02-11T16:40:54.547Z,99813.03
2023-02-11T16:42:26.214Z,99812.56
2023-02-11T16:43:58.920Z,99821.88
2023-02-11T16:45:30.579Z,99815.25
2023-02-11T16:47:04.439Z,99822.31
2023-02-11T16:48:37.648Z,99823.00
2023-02-11T16:50:11.628Z,99823.69
2023-02-11T16:51:50.202Z,99822.34
2023-02-11T16:53:24.177Z,99834.66
2023-02-11T16:54:55.942Z,99848.38
2023-02-11T16:56:27.620Z,99854.81
2023-02-11T16:57:59.509Z,99858.06
2023-02-11T16:59:31.275Z,99869.13
2023-02-11T17:01:03.178Z,99878.13
2023-02-11T17:02:37.257Z,99874.00
2023-02-11T17:04:16.775Z,99868.47
2023-02-11T17:05:55.430Z,99863.94
2023-02-11T17:07:28.708Z,99865.44
2023-02-11T17:09:00.547Z,99863.47
2023-02-11T17:10:32.535Z,99864.66
2023-02-11T17:12:06.999Z,99868.41
2023-02-11T17:13:39.557Z,99876.78
2023-02-11T17:15:11.304Z,99876.47
2023-02-11T17:16:43.839Z,99876.41
2023-02-11T17:18:15.549Z,99878.16
2023-02-11T17:19:47.920Z,99883.13
2023-02-11T17:21:19.560Z,99884.66
2023-02-11T17:22:51.558Z,99886.78
2023-02-11T17:24:23.511Z,99879.06
2023-02-11T17:25:56.491Z,99883.88
2023-02-11T17:27:28.118Z,99891.97
2023-02-11T17:28:59.855Z,99883.88
2023-02-11T17:30:31.719Z,99887.84
2023-02-11T17:32:03.605Z,99892.19
2023-02-11T17:33:36.315Z,99891.56
2023-02-11T17:35:08.105Z,99900.53
2023-02-11T17:36:41.419Z,99897.81
2023-02-11T17:38:13.102Z,99897.28
2023-02-11T17:39:44.943Z,99896.94
2023-02-11T17:41:17.045Z,99897.44
2023-02-11T17:42:48.695Z,99899.44
2023-02-11T17:44:20.515Z,99900.28
2023-02-11T17:45:52.795Z,99893.13
2023-02-11T17:47:25.121Z,99903.28
2023-02-11T17:48:58.888Z,99900.53
2023-02-11T17:50:30.575Z,99896.75
2023-02-11T17:52:02.613Z,99893.06
2023-02-11T17:53:34.301Z,99895.63
2023-02-11T17:55:06.486Z,99895.78
2023-02-11T17:56:41.927Z,99911.25
2023-02-11T17:58:13.566Z,99903.00
2023-02-11T17:59:45.325Z,99906.44
2023-02-11T18:01:17.012Z,99912.19
2023-02-11T18:02:50.909Z,99919.09
2023-02-11T18:04:22.651Z,99915.97
2023-02-11T18:05:54.565Z,99907.25
2023-02-11T18:07:26.848Z,99909.44
2023-02-11T18:08:59.827Z,99912.44
2023-02-11T18:10:31.824Z,99913.78
2023-02-11T18:12:03.542Z,99910.69
2023-02-11T18:13:35.266Z,99914.13
2023-02-11T18:15:07.121Z,99919.28
2023-02-11T18:16:40.363Z,99919.88
2023-02-11T18:18:12.476Z,99906.47
2023-02-11T18:19:44.185Z,99922.72
2023-02-11T18:21:18.405Z,99927.00
2023-02-11T18:22:50.093Z,99919.88
2023-02-11T18:24:21.830Z,99933.44
2023-02-11T18:25:54.109Z,99938.31
2023-02-11T18:27:25.930Z,99934.78
2023-02-11T18:29:00.049Z,99930.22
2023-02-11T18:30:34.710Z,99941.28
2023-02-11T18:32:06.600Z,99931.78
2023-02-11T18:33:40.176Z,99938.69
2023-02-11T18:35:15.875Z,99933.50
2023-02-11T18:36:48.895Z,99937.00
2023-02-11T18:38:22.243Z,99942.19
2023-02-11T18:39:53.901Z,99940.38
2023-02-11T18:41:25.500Z,99928.97
2023-02-11T18:42:57.154Z,99942.75
2023-02-11T18:44:29.182Z,99941.06
2023-02-11T18:46:02.336Z,99945.34
2023-02-11T18:47:34.044Z,99942.75
2023-02-11T18:49:06.347Z,99940.22
2023-02-11T18:50:40.748Z,99950.59